createdAt,value
2019-05-29T00:02:24.938Z,99979.81
2019-05-29T00:04:57.802Z,99983.44
2019-05-29T00:07:33.665Z,99986.69
2019-05-29T00:10:08.957Z,99985.35
2019-05-29T00:12:42.579Z,99995.14
2019-05-29T00:15:19.152Z,99999.75
2019-05-29T00:17:51.794Z,100001.42
2019-05-29T00:20:24.411Z,100007.25
2019-05-29T00:22:56.955Z,100008.42
2019-05-29T00:25:29.937Z,100012.77
2019-05-29T00:28:03.140Z,100008.86
2019-05-29T00:30:37.010Z,100009.63
2019-05-29T00:33:10.150Z,100012.17
2019-05-29T00:35:44.108Z,100013.61
2019-05-29T00:38:18.633Z,100019.27
2019-05-29T00:40:51.921Z,100022.40
2019-05-29T00:43:24.528Z,100025.77
2019-05-29T00:45:59.738Z,100028.16
2019-05-29T00:48:32.842Z,100032.63
2019-05-29T00:51:06.409Z,100035.91
2019-05-29T00:53:40.697Z,100034.77
2019-05-29T00:56:14.663Z,100034.14
2019-05-29T00:58:47.214Z,100038.70
2019-05-29T01:01:22.642Z,100043.39
2019-05-29T01:03:58.646Z,100045.27
2019-05-29T01:06:32.478Z,100046.72
2019-05-29T01:09:07.502Z,100047.94
2019-05-29T01:11:40.565Z,100046.79
2019-05-29T01:14:15.152Z,100048.39
2019-05-29T01:16:47.873Z,100052.56
2019-05-29T01:19:24.482Z,100051.17
2019-05-29T01:22:00.718Z,100055.34
2019-05-29T01:24:35.124Z,100065.19
2019-05-29T01:27:07.894Z,100061.32
2019-05-29T01:29:40.530Z,100064.16
2019-05-29T01:32:15.241Z,100069.48
2019-05-29T01:34:50.047Z,100071.57
2019-05-29T01:37:22.964Z,100080.06
2019-05-29T01:39:55.554Z,100079.68
2019-05-29T01:42:28.131Z,100074.17
2019-05-29T01:45:07.548Z,100074.23
2019-05-29T01:47:41.307Z,100081.33
2019-05-29T01:50:15.589Z,100080.30
2019-05-29T01:52:48.330Z,100083.42
2019-05-29T01:55:21.737Z,100086.76
2019-05-29T01:57:54.406Z,100090.65
2019-05-29T02:00:28.577Z,100092.70
2019-05-29T02:03:01.375Z,100090.05
2019-05-29T02:05:33.952Z,100095.66
2019-05-29T02:08:06.451Z,100096.02
2019-05-29T02:10:39.109Z,100103.91
2019-05-29T02:13:11.854Z,100101.08
2019-05-29T02:15:45.250Z,100102.51
2019-05-29T02:18:18.815Z,100105.32
2019-05-29T02:20:51.583Z,100118.81
2019-05-29T02:23:24.285Z,100123.88
2019-05-29T02:25:58.023Z,100127.11
2019-05-29T02:28:33.120Z,100122.77
2019-05-29T02:31:05.887Z,100125.61
2019-05-29T02:33:38.586Z,100129.34
2019-05-29T02:36:11.178Z,100129.31
2019-05-29T02:38:45.575Z,100131.92
2019-05-29T02:41:19.669Z,100132.25
2019-05-29T02:43:54.055Z,100139.27
2019-05-29T02:46:28.560Z,100139.72
2019-05-29T02:49:03.060Z,100147.05
2019-05-29T02:51:38.644Z,100149.51
2019-05-29T02:54:11.418Z,100154.09
2019-05-29T02:56:44.253Z,100154.97
2019-05-29T02:59:17.261Z,100158.94
2019-05-29T03:01:50.008Z,100159.62
2019-05-29T03:04:24.037Z,100157.42
2019-05-29T03:06:57.401Z,100162.59
2019-05-29T03:09:30.787Z,100162.67
2019-05-29T03:12:04.396Z,100165.53
2019-05-29T03:14:38.823Z,100163.20
2019-05-29T03:17:11.656Z,100160.23
2019-05-29T03:19:44.289Z,100159.75
2019-05-29T03:22:16.864Z,100167.30
2019-05-29T03:24:49.385Z,100175.06
2019-05-29T03:27:22.031Z,100171.82
2019-05-29T03:29:54.623Z,100176.81
2019-05-29T03:32:30.645Z,100179.16
2019-05-29T03:35:07.412Z,100181.91
2019-05-29T03:37:40.635Z,100186.17
2019-05-29T03:40:13.460Z,100191.32
2019-05-29T03:42:46.122Z,100191.45
2019-05-29T03:45:19.706Z,100200.81
2019-05-29T03:47:52.459Z,100201.79
2019-05-29T03:50:26.611Z,100204.46
2019-05-29T03:53:01.297Z,100210.55
2019-05-29T03:55:35.787Z,100212.30
2019-05-29T03:58:08.651Z,100214.38
2019-05-29T04:00:46.197Z,100216.77
2019-05-29T04:03:20.935Z,100222.55
2019-05-29T04:05:54.624Z,100216.20
2019-05-29T04:08:29.281Z,100220.58
2019-05-29T04:11:03.551Z,100223.39
2019-05-29T04:13:38.899Z,100224.40
2019-05-29T04:16:14.316Z,100226.71
2019-05-29T04:18:50.066Z,100223.12
2019-05-29T04:21:24.905Z,100222.02
2019-05-29T04:24:01.550Z,100223.01
2019-05-29T04:26:40.542Z,100227.79
2019-05-29T04:29:13.890Z,100236.61
2019-05-29T04:31:46.842Z,100242.14
2019-05-29T04:34:19.610Z,100246.76
2019-05-29T04:36:53.211Z,100247.05
2019-05-29T04:39:25.860Z,100256.26
2019-05-29T04:41:58.624Z,100260.48
2019-05-29T04:44:55.815Z,100268.02
2019-05-29T04:47:37.434Z,100278.02
2019-05-29T04:50:13.019Z,100280.75
2019-05-29T04:52:47.996Z,100282.88
2019-05-29T04:55:21.789Z,100286.33
2019-05-29T04:57:54.588Z,100287.16
2019-05-29T05:00:29.085Z,100287.15
2019-05-29T05:03:01.782Z,100286.58
2019-05-29T05:05:37.991Z,100295.59
2019-05-29T05:08:12.507Z,100302.90
2019-05-29T05:10:45.870Z,100304.47
2019-05-29T05:13:18.842Z,100305.42
2019-05-29T05:15:54.976Z,100305.95
2019-05-29T05:18:27.683Z,100306.62
2019-05-29T05:21:02.449Z,100311.94
2019-05-29T05:23:36.147Z,100315.30
2019-05-29T05:26:08.832Z,100309.42
2019-05-29T05:28:44.677Z,100309.06
2019-05-29T05:31:19.461Z,100314.27
2019-05-29T05:33:53.536Z,100313.21
2019-05-29T05:36:26.255Z,100315.15
2019-05-29T05:38:58.945Z,100318.75
2019-05-29T05:41:32.767Z,100321.34
2019-05-29T05:44:05.851Z,100323.66
2019-05-29T05:46:39.204Z,100324.66
2019-05-29T05:49:11.995Z,100326.80
2019-05-29T05:51:44.812Z,100330.73
2019-05-29T05:54:19.272Z,100338.42
2019-05-29T05:56:53.779Z,100339.52
2019-05-29T05:59:26.562Z,100345.50
2019-05-29T06:01:59.155Z,100347.03
2019-05-29T06:04:31.947Z,100345.34
2019-05-29T06:07:06.859Z,100348.92
2019-05-29T06:09:40.429Z,100348.59
2019-05-29T06:12:13.175Z,100349.83
2019-05-29T06:14:45.706Z,100360.88
2019-05-29T06:17:21.757Z,100354.34
2019-05-29T06:19:54.675Z,100358.65
2019-05-29T06:22:28.280Z,100365.19
2019-05-29T06:25:01.863Z,100363.26
2019-05-29T06:27:41.345Z,100364.97
2019-05-29T06:30:18.983Z,100370.38
2019-05-29T06:32:58.485Z,100372.45
2019-05-29T06:35:34.511Z,100379.78
2019-05-29T06:38:12.461Z,100383.97
2019-05-29T06:40:46.910Z,100380.76
2019-05-29T06:43:24.114Z,100385.77
2019-05-29T06:45:57.527Z,100385.76
2019-05-29T06:48:46.137Z,100389.27
2019-05-29T06:51:27.919Z,100394.32
2019-05-29T06:54:03.660Z,100397.94
2019-05-29T06:56:37.758Z,100399.16
2019-05-29T06:59:10.899Z,100398.32
2019-05-29T07:01:44.071Z,100399.17
2019-05-29T07:04:18.315Z,100398.70
2019-05-29T07:06:52.059Z,100400.11
2019-05-29T07:09:25.628Z,100400.82
2019-05-29T07:11:58.279Z,100401.31
2019-05-29T07:14:30.994Z,100402.31
2019-05-29T07:17:04.470Z,100400.33
2019-05-29T07:19:49.088Z,100402.97
2019-05-29T07:22:32.696Z,100405.74
2019-05-29T07:25:14.221Z,100404.22
2019-05-29T07:27:47.112Z,100406.28
2019-05-29T07:30:22.285Z,100411.86
2019-05-29T07:32:58.807Z,100418.06
2019-05-29T07:35:31.900Z,100411.34
2019-05-29T07:38:04.540Z,100410.99
2019-05-29T07:40:38.386Z,100417.05
2019-05-29T07:43:12.240Z,100415.44
2019-05-29T07:45:46.137Z,100409.20
2019-05-29T07:48:19.648Z,100414.45
2019-05-29T07:51:06.260Z,100416.44
2019-05-29T07:53:40.162Z,100416.91
2019-05-29T07:56:22.668Z,100420.52
2019-05-29T07:59:02.408Z,100424.73
2019-05-29T08:01:36.396Z,100428.06
2019-05-29T08:04:11.432Z,100423.69
2019-05-29T08:06:52.337Z,100426.58
2019-05-29T08:09:29.515Z,100427.45
2019-05-29T08:12:02.322Z,100425.56
2019-05-29T08:14:34.852Z,100430.97
2019-05-29T08:17:09.160Z,100425.51
2019-05-29T08:19:59.248Z,100424.89
2019-05-29T08:22:42.286Z,100430.34
2019-05-29T08:25:20.548Z,100432.41
2019-05-29T08:28:03.164Z,100433.10
2019-05-29T08:30:41.565Z,100429.95
2019-05-29T08:33:18.172Z,100428.00
2019-05-29T08:35:59.310Z,100433.70
2019-05-29T08:38:37.625Z,100425.84
2019-05-29T08:41:10.303Z,100433.42
2019-05-29T08:43:46.963Z,100433.56
2019-05-29T08:46:20.653Z,100431.10
2019-05-29T08:48:54.715Z,100438.37
2019-05-29T08:51:33.857Z,100439.77
2019-05-29T08:54:23.543Z,100438.32
2019-05-29T08:57:08.123Z,100432.29
2019-05-29T08:59:46.407Z,100434.77
2019-05-29T09:02:23.544Z,100432.54
2019-05-29T09:04:57.817Z,100429.92
2019-05-29T09:07:33.651Z,100434.26
2019-05-29T09:10:08.455Z,100432.95
2019-05-29T09:12:47.090Z,100434.39
2019-05-29T09:15:29.165Z,100433.13
2019-05-29T09:18:12.970Z,100429.33
2019-05-29T09:21:01.800Z,100422.00
2019-05-29T09:23:40.333Z,100427.73
2019-05-29T09:26:19.836Z,100427.26
2019-05-29T09:28:58.927Z,100425.06
2019-05-29T09:31:37.460Z,100427.72
2019-05-29T09:34:10.558Z,100425.31
2019-05-29T09:36:43.746Z,100424.00
2019-05-29T09:39:24.862Z,100427.41
2019-05-29T09:42:00.213Z,100427.23
2019-05-29T09:44:38.654Z,100422.45
2019-05-29T09:47:13.141Z,100424.10
2019-05-29T09:49:49.186Z,100423.96
2019-05-29T09:52:25.078Z,100427.43
2019-05-29T09:55:00.449Z,100429.11
2019-05-29T09:57:34.607Z,100429.50
2019-05-29T10:00:10.034Z,100432.69
2019-05-29T10:02:45.729Z,100436.48
2019-05-29T10:05:20.556Z,100435.12
2019-05-29T10:07:56.302Z,100433.27
2019-05-29T10:10:32.674Z,100436.80
2019-05-29T10:13:06.182Z,100441.44
2019-05-29T10:15:39.359Z,100441.77
2019-05-29T10:18:31.465Z,100439.50
2019-05-29T10:21:19.757Z,100436.48
2019-05-29T10:23:56.229Z,100434.70
2019-05-29T10:26:33.131Z,100437.75
2019-05-29T10:29:10.022Z,100437.92
2019-05-29T10:31:49.818Z,100441.02
2019-05-29T10:34:34.034Z,100436.45
2019-05-29T10:37:18.117Z,100433.54
2019-05-29T10:39:53.635Z,100432.36
2019-05-29T10:42:34.932Z,100435.67
2019-05-29T10:45:18.529Z,100433.13
2019-05-29T10:47:55.617Z,100436.86
2019-05-29T10:50:38.760Z,100430.03
2019-05-29T10:53:24.728Z,100427.14
2019-05-29T10:55:58.455Z,100424.88
2019-05-29T10:58:47.941Z,100423.11
2019-05-29T11:01:26.428Z,100418.78
2019-05-29T11:04:00.472Z,100420.41
2019-05-29T11:06:34.103Z,100419.03
2019-05-29T11:09:18.525Z,100415.48
2019-05-29T11:11:57.734Z,100419.22
2019-05-29T11:14:35.264Z,100417.30
2019-05-29T11:17:10.983Z,100418.81
2019-05-29T11:19:44.332Z,100412.23
2019-05-29T11:22:26.235Z,100419.47
2019-05-29T11:25:21.074Z,100419.47
2019-05-29T11:27:56.770Z,100418.63
2019-05-29T11:30:33.925Z,100414.69
2019-05-29T11:33:10.718Z,100410.06
2019-05-29T11:35:57.331Z,100407.02
2019-05-29T11:38:40.024Z,100419.20
2019-05-29T11:41:25.775Z,100413.22
2019-05-29T11:44:07.197Z,100413.51
2019-05-29T11:46:40.833Z,100405.78
2019-05-29T11:49:14.646Z,100407.48
2019-05-29T11:52:16.966Z,100413.79
2019-05-29T11:54:59.962Z,100406.47
2019-05-29T11:57:48.038Z,100409.09
2019-05-29T12:00:21.527Z,100407.48
2019-05-29T12:02:57.356Z,100402.80
2019-05-29T12:05:33.458Z,100403.17
2019-05-29T12:08:06.166Z,100402.22
2019-05-29T12:10:39.026Z,100401.62
2019-05-29T12:13:11.798Z,100403.83
2019-05-29T12:15:45.388Z,100402.84
2019-05-29T12:18:23.953Z,100402.67
2019-05-29T12:20:58.543Z,100395.05
2019-05-29T12:23:32.919Z,100402.80
2019-05-29T12:26:23.362Z,100404.34
2019-05-29T12:29:04.535Z,100398.73
2019-05-29T12:31:43.717Z,100398.60
2019-05-29T12:34:19.438Z,100399.80
2019-05-29T12:36:55.426Z,100394.05
2019-05-29T12:39:28.585Z,100396.20
2019-05-29T12:42:01.786Z,100398.73
2019-05-29T12:44:35.529Z,100398.25
2019-05-29T12:47:09.532Z,100398.48
2019-05-29T12:49:42.232Z,100395.00
2019-05-29T12:52:14.818Z,100395.86
2019-05-29T12:54:48.704Z,100393.09
2019-05-29T12:57:23.624Z,100394.02
2019-05-29T13:00:00.311Z,100391.64
2019-05-29T13:02:35.321Z,100389.53
2019-05-29T13:05:19.302Z,100395.64
2019-05-29T13:07:54.708Z,100392.06
2019-05-29T13:10:31.023Z,100387.58
2019-05-29T13:13:12.586Z,100387.52
2019-05-29T13:15:49.143Z,100387.66
2019-05-29T13:18:21.756Z,100388.59
2019-05-29T13:20:57.261Z,100386.63
2019-05-29T13:23:44.621Z,100385.87
2019-05-29T13:26:19.374Z,100383.88
2019-05-29T13:28:52.969Z,100384.02
2019-05-29T13:31:27.279Z,100384.48
2019-05-29T13:34:02.081Z,100383.78
2019-05-29T13:36:35.636Z,100380.48
2019-05-29T13:39:10.246Z,100375.87
2019-05-29T13:41:42.989Z,100369.47
2019-05-29T13:44:15.854Z,100368.31
2019-05-29T13:46:48.623Z,100375.33
2019-05-29T13:49:21.460Z,100373.47
2019-05-29T13:51:54.311Z,100383.10
2019-05-29T13:54:28.612Z,100375.50
2019-05-29T13:57:02.505Z,100378.98
2019-05-29T13:59:36.054Z,100371.25
2019-05-29T14:02:10.390Z,100367.66
2019-05-29T14:04:44.129Z,100375.91
2019-05-29T14:07:16.906Z,100372.64
2019-05-29T14:09:51.297Z,100369.02
2019-05-29T14:12:25.834Z,100372.92
2019-05-29T14:14:59.938Z,100363.84
2019-05-29T14:17:34.903Z,100368.02
2019-05-29T14:20:09.176Z,100365.08
2019-05-29T14:22:42.917Z,100371.12
2019-05-29T14:25:16.519Z,100363.67
2019-05-29T14:27:50.814Z,100363.50
2019-05-29T14:30:26.694Z,100366.03
2019-05-29T14:32:59.356Z,100362.83
2019-05-29T14:35:34.258Z,100356.92
2019-05-29T14:38:11.637Z,100357.96
2019-05-29T14:40:47.433Z,100367.74
2019-05-29T14:43:22.054Z,100370.11
2019-05-29T14:46:03.924Z,100367.12
2019-05-29T14:48:41.276Z,100357.03
2019-05-29T14:51:25.638Z,100367.61
2019-05-29T14:53:59.207Z,100369.96
2019-05-29T14:56:32.232Z,100366.28
2019-05-29T14:59:05.659Z,100370.75
2019-05-29T15:01:41.580Z,100363.27
2019-05-29T15:04:15.227Z,100361.09
2019-05-29T15:06:48.609Z,100363.67
2019-05-29T15:09:21.351Z,100367.33
2019-05-29T15:11:54.052Z,100368.76
2019-05-29T15:14:27.433Z,100366.53
2019-05-29T15:17:02.137Z,100369.98
2019-05-29T15:19:40.278Z,100379.28
2019-05-29T15:22:14.503Z,100373.09
2019-05-29T15:25:04.252Z,100369.66
2019-05-29T15:27:46.345Z,100380.63
2019-05-29T15:30:23.636Z,100372.87
2019-05-29T15:33:01.812Z,100377.02
2019-05-29T15:35:42.862Z,100374.89
2019-05-29T15:38:38.229Z,100375.75
2019-05-29T15:41:16.816Z,100375.17
2019-05-29T15:44:13.286Z,100374.53
2019-05-29T15:46:49.167Z,100371.45
2019-05-29T15:49:23.286Z,100377.42
2019-05-29T15:52:01.853Z,100379.63
2019-05-29T15:54:43.232Z,100375.47
2019-05-29T15:57:19.956Z,100376.88
2019-05-29T15:59:53.837Z,100372.19
2019-05-29T16:02:32.164Z,100372.50
2019-05-29T16:05:06.942Z,100368.53
2019-05-29T16:07:43.502Z,100370.91
2019-05-29T16:10:21.533Z,100374.90
2019-05-29T16:13:17.138Z,100367.88
2019-05-29T16:15:51.370Z,100368.27
2019-05-29T16:18:29.635Z,100365.14
2019-05-29T16:21:04.626Z,100360.46
2019-05-29T16:23:40.303Z,100359.36
2019-05-29T16:26:13.352Z,100360.59
2019-05-29T16:28:47.705Z,100364.14
2019-05-29T16:31:23.049Z,100364.73
2019-05-29T16:33:59.743Z,100364.98
2019-05-29T16:36:40.297Z,100360.51
2019-05-29T16:39:15.819Z,100358.56
2019-05-29T16:41:55.032Z,100366.55
2019-05-29T16:44:30.678Z,100358.53
2019-05-29T16:47:07.465Z,100357.94
2019-05-29T16:49:42.306Z,100358.04
2019-05-29T16:52:24.295Z,100362.65
2019-05-29T16:55:00.541Z,100359.23
2019-05-29T16:57:34.235Z,100360.27
2019-05-29T17:00:10.041Z,100354.27
2019-05-29T17:02:52.608Z,100356.99
2019-05-29T17:05:28.230Z,100362.37
2019-05-29T17:08:02.767Z,100357.03
2019-05-29T17:10:38.184Z,100351.94
2019-05-29T17:13:16.619Z,100352.42
2019-05-29T17:15:53.294Z,100353.27
2019-05-29T17:18:26.992Z,100346.59
2019-05-29T17:21:00.091Z,100345.34
2019-05-29T17:23:37.476Z,100342.52
2019-05-29T17:26:14.549Z,100337.68
2019-05-29T17:28:50.288Z,100340.24
2019-05-29T17:31:32.734Z,100340.10
2019-05-29T17:34:13.306Z,100342.92
2019-05-29T17:36:48.331Z,100342.45
2019-05-29T17:39:25.135Z,100339.80
2019-05-29T17:42:00.106Z,100345.09
2019-05-29T17:44:35.332Z,100350.72
2019-05-29T17:47:12.779Z,100359.39
2019-05-29T17:49:53.487Z,100356.25
2019-05-29T17:52:31.471Z,100359.23
2019-05-29T17:55:23.286Z,100365.97
2019-05-29T17:58:04.743Z,100371.15
2019-05-29T18:00:37.471Z,100372.87
2019-05-29T18:03:10.846Z,100373.33
2019-05-29T18:05:46.277Z,100374.22
2019-05-29T18:08:20.910Z,100371.88
2019-05-29T18:10:53.761Z,100375.39
2019-05-29T18:13:27.415Z,100372.91
2019-05-29T18:16:02.209Z,100366.34
2019-05-29T18:18:35.384Z,100370.09
2019-05-29T18:21:08.165Z,100367.27
2019-05-29T18:23:41.171Z,100374.59
2019-05-29T18:26:15.002Z,100375.39
2019-05-29T18:28:49.827Z,100378.53
2019-05-29T18:31:24.389Z,100377.50
2019-05-29T18:33:57.435Z,100378.96
2019-05-29T18:36:31.380Z,100375.17
2019-05-29T18:39:08.579Z,100375.56
2019-05-29T18:41:41.244Z,100374.98
2019-05-29T18:44:14.963Z,100368.31
2019-05-29T18:46:47.714Z,100372.33
2019-05-29T18:49:20.474Z,100371.69
2019-05-29T18:51:53.027Z,100371.77
2019-05-29T18:54:26.288Z,100374.78
2019-05-29T18:57:14.594Z,100373.44
2019-05-29T18:59:52.358Z,100372.34
2019-05-29T19:02:25.383Z,100367.45
2019-05-29T19:05:01.029Z,100370.47
2019-05-29T19:07:35.344Z,100378.42
2019-05-29T19:10:10.873Z,100379.42
2019-05-29T19:12:50.831Z,100375.09
2019-05-29T19:15:26.060Z,100387.91
2019-05-29T19:18:01.309Z,100385.31
2019-05-29T19:20:37.060Z,100384.75
2019-05-29T19:23:09.787Z,100386.98
2019-05-29T19:25:43.312Z,100383.67
2019-05-29T19:28:17.179Z,100385.95
2019-05-29T19:30:51.048Z,100390.32
2019-05-29T19:33:27.392Z,100396.48
2019-05-29T19:36:00.850Z,100403.81
2019-05-29T19:38:34.213Z,100402.86
2019-05-29T19:41:17.532Z,100409.30
2019-05-29T19:43:51.680Z,100407.40
2019-05-29T19:46:24.547Z,100413.49
2019-05-29T19:49:05.403Z,100414.98
2019-05-29T19:51:40.995Z,100417.11
2019-05-29T19:54:18.796Z,100419.78
2019-05-29T19:56:52.579Z,100415.93
2019-05-29T19:59:26.192Z,100421.45
2019-05-29T20:02:00.318Z,100423.69
2019-05-29T20:04:42.878Z,100424.98
2019-05-29T20:07:16.535Z,100427.36
2019-05-29T20:09:50.071Z,100428.03
2019-05-29T20:12:27.550Z,100425.33
2019-05-29T20:15:07.839Z,100435.09
2019-05-29T20:17:41.918Z,100431.49
2019-05-29T20:20:15.184Z,100434.22
2019-05-29T20:22:51.393Z,100434.23
2019-05-29T20:25:27.045Z,100437.73
2019-05-29T20:28:07.556Z,100439.08
2019-05-29T20:30:40.457Z,100442.08
2019-05-29T20:33:15.305Z,100441.59
2019-05-29T20:35:53.554Z,100441.30
2019-05-29T20:38:30.986Z,100446.30
2019-05-29T20:41:05.450Z,100443.02
2019-05-29T20:43:39.797Z,100441.86
2019-05-29T20:46:16.837Z,100440.77
2019-05-29T20:48:50.879Z,100441.00
2019-05-29T20:51:24.284Z,100442.62
2019-05-29T20:53:58.052Z,100439.15
2019-05-29T20:56:31.657Z,100442.09
2019-05-29T20:59:07.125Z,100446.48
2019-05-29T21:02:26.569Z,100446.51
2019-05-29T21:05:02.212Z,100442.75
2019-05-29T21:07:54.177Z,100446.48
2019-05-29T21:10:27.631Z,100443.39
2019-05-29T21:13:01.286Z,100448.02
2019-05-29T21:15:35.573Z,100450.37
2019-05-29T21:18:08.985Z,100447.39
2019-05-29T21:20:45.575Z,100443.72
2019-05-29T21:23:18.235Z,100451.95
2019-05-29T21:25:52.118Z,100450.31
2019-05-29T21:28:39.868Z,100453.02
2019-05-29T21:31:21.216Z,100451.48
2019-05-29T21:33:56.013Z,100452.47
2019-05-29T21:36:29.583Z,100454.31
2019-05-29T21:39:08.782Z,100451.23
2019-05-29T21:41:42.565Z,100450.33
2019-05-29T21:44:17.618Z,100450.70
2019-05-29T21:46:57.593Z,100447.49
2019-05-29T21:49:32.398Z,100451.34
2019-05-29T21:52:06.586Z,100456.20
2019-05-29T21:54:39.393Z,100461.71
2019-05-29T21:57:13.003Z,100462.22
2019-05-29T21:59:48.091Z,100462.79
2019-05-29T22:02:21.847Z,100461.71
2019-05-29T22:04:54.488Z,100464.50
2019-05-29T22:07:27.905Z,100457.19
2019-05-29T22:10:01.035Z,100452.77
2019-05-29T22:12:35.956Z,100448.42
2019-05-29T22:15:23.574Z,100450.81
2019-05-29T22:17:57.538Z,100453.63
2019-05-29T22:20:32.335Z,100446.43
2019-05-29T22:23:14.303Z,100442.66
2019-05-29T22:25:47.055Z,100442.28
2019-05-29T22:28:21.457Z,100442.95
2019-05-29T22:30:57.353Z,100442.67
2019-05-29T22:33:34.788Z,100443.64
2019-05-29T22:36:11.505Z,100437.37
2019-05-29T22:38:46.701Z,100440.44
2019-05-29T22:41:25.214Z,100445.01
2019-05-29T22:44:02.500Z,100438.83
2019-05-29T22:46:35.507Z,100439.36
2019-05-29T22:49:09.273Z,100440.25
2019-05-29T22:51:44.307Z,100439.38
2019-05-29T22:54:17.012Z,100437.25
2019-05-29T22:56:49.576Z,100434.69
2019-05-29T22:59:31.932Z,100434.73
2019-05-29T23:02:07.866Z,100435.11
2019-05-29T23:04:44.042Z,100432.12
2019-05-29T23:07:21.463Z,100434.04
2019-05-29T23:12:53.012Z,100427.41
2019-05-29T23:15:28.375Z,100427.74
2019-05-29T23:18:00.992Z,100425.58
2019-05-29T23:20:36.725Z,100421.84
2019-05-29T23:23:09.382Z,100421.92
2019-05-29T23:25:40.978Z,100422.55
2019-05-29T23:28:13.390Z,100423.95
2019-05-29T23:30:45.258Z,100423.80
2019-05-29T23:33:18.642Z,100428.62
2019-05-29T23:35:51.391Z,100429.12
2019-05-29T23:38:23.554Z,100427.30
2019-05-29T23:40:57.406Z,100423.53
2019-05-29T23:43:29.274Z,100417.71
2019-05-29T23:46:02.481Z,100424.38
2019-05-29T23:48:37.069Z,100422.50
2019-05-29T23:51:08.930Z,100427.73
2019-05-29T23:53:53.779Z,100426.30
2019-05-29T23:56:26.245Z,100422.34
2019-05-29T23:58:57.912Z,100423.81
